Terminal Aerodrome Forecast
Issued by NWS

Current Version | Previous Version | Graphics & Text | Print | Product List | Glossary On
Versions: 1 2 3 4 5 6 7 8 9 10 11 12 13 14 15 16 17 18 19 20 21 22 23 24 25 26 27 28 29 30 31 32 33 34 35 36 37 38 39 40
000
FTUS41 KRNK 291121
TAFLWB
TAF
KLWB 291121Z 2912/3012 00000KT 4SM BR SCT040
      TEMPO 2912/2913 2SM BR BKN040
     FM291600 29007KT P6SM VCSH SCT025 BKN040
     FM300000 VRB03KT P6SM SCT040
     FM300400 00000KT 3SM BR SKC
     FM300600 00000KT 1SM BR SCT001=

USA.gov is the U.S. government's official web portal to all federal, state and local government web resources and services.